sensor_id;sensor_type;location;lat;lon;timestamp;P1;durP1;ratioP1;P2;durP2;ratioP2
9294;SDS011;4686;44.496;11.324;2023-08-20T00:01:08;16.40;;;12.23;;
9294;SDS011;4686;44.496;11.324;2023-08-20T00:03:39;13.30;;;12.13;;
9294;SDS011;4686;44.496;11.324;2023-08-20T00:06:10;14.17;;;12.67;;
9294;SDS011;4686;44.496;11.324;2023-08-20T00:08:37;13.20;;;11.90;;
9294;SDS011;4686;44.496;11.324;2023-08-20T00:11:04;17.53;;;11.83;;
9294;SDS011;4686;44.496;11.324;2023-08-20T00:13:32;13.70;;;12.30;;
9294;SDS011;4686;44.496;11.324;2023-08-20T00:15:59;14.50;;;12.40;;
9294;SDS011;4686;44.496;11.324;2023-08-20T00:18:27;13.27;;;11.97;;
9294;SDS011;4686;44.496;11.324;2023-08-20T00:20:54;14.37;;;12.87;;
9294;SDS011;4686;44.496;11.324;2023-08-20T00:23:24;13.10;;;11.87;;
9294;SDS011;4686;44.496;11.324;2023-08-20T00:25:51;14.33;;;12.93;;
9294;SDS011;4686;44.496;11.324;2023-08-20T00:28:19;13.93;;;12.50;;
9294;SDS011;4686;44.496;11.324;2023-08-20T00:30:46;18.60;;;12.60;;
9294;SDS011;4686;44.496;11.324;2023-08-20T00:33:14;14.67;;;13.30;;
9294;SDS011;4686;44.496;11.324;2023-08-20T00:35:41;16.67;;;12.97;;
9294;SDS011;4686;44.496;11.324;2023-08-20T00:40:55;15.00;;;13.20;;
9294;SDS011;4686;44.496;11.324;2023-08-20T00:43:23;15.50;;;12.07;;
9294;SDS011;4686;44.496;11.324;2023-08-20T00:45:50;14.07;;;12.77;;
9294;SDS011;4686;44.496;11.324;2023-08-20T00:48:17;14.83;;;12.40;;
9294;SDS011;4686;44.496;11.324;2023-08-20T00:50:45;18.17;;;14.40;;
9294;SDS011;4686;44.496;11.324;2023-08-20T00:53:12;13.87;;;12.67;;
9294;SDS011;4686;44.496;11.324;2023-08-20T00:55:40;14.97;;;13.60;;
9294;SDS011;4686;44.496;11.324;2023-08-20T00:58:09;16.50;;;13.47;;
9294;SDS011;4686;44.496;11.324;2023-08-20T01:00:37;16.30;;;12.47;;
9294;SDS011;4686;44.496;11.324;2023-08-20T01:03:03;13.83;;;12.43;;
9294;SDS011;4686;44.496;11.324;2023-08-20T01:05:31;14.00;;;12.70;;
9294;SDS011;4686;44.496;11.324;2023-08-20T01:08:04;14.17;;;12.70;;
9294;SDS011;4686;44.496;11.324;2023-08-20T01:10:34;14.10;;;12.90;;
9294;SDS011;4686;44.496;11.324;2023-08-20T01:13:05;16.30;;;12.60;;
9294;SDS011;4686;44.496;11.324;2023-08-20T01:15:34;14.27;;;12.77;;
9294;SDS011;4686;44.496;11.324;2023-08-20T01:18:01;13.63;;;12.23;;
9294;SDS011;4686;44.496;11.324;2023-08-20T01:20:30;17.47;;;13.57;;
9294;SDS011;4686;44.496;11.324;2023-08-20T01:23:07;14.20;;;12.83;;
9294;SDS011;4686;44.496;11.324;2023-08-20T01:25:46;17.40;;;13.53;;
9294;SDS011;4686;44.496;11.324;2023-08-20T01:28:25;15.63;;;14.00;;
9294;SDS011;4686;44.496;11.324;2023-08-20T01:30:53;16.27;;;12.83;;
9294;SDS011;4686;44.496;11.324;2023-08-20T01:33:20;18.80;;;13.93;;
9294;SDS011;4686;44.496;11.324;2023-08-20T01:35:49;16.00;;;13.77;;
9294;SDS011;4686;44.496;11.324;2023-08-20T01:38:16;15.27;;;13.77;;
9294;SDS011;4686;44.496;11.324;2023-08-20T01:40:43;17.37;;;13.53;;
9294;SDS011;4686;44.496;11.324;2023-08-20T01:43:11;14.30;;;12.80;;
9294;SDS011;4686;44.496;11.324;2023-08-20T01:45:39;13.83;;;12.53;;
9294;SDS011;4686;44.496;11.324;2023-08-20T01:48:06;17.53;;;13.60;;
9294;SDS011;4686;44.496;11.324;2023-08-20T01:50:34;15.70;;;13.40;;
9294;SDS011;4686;44.496;11.324;2023-08-20T01:53:02;14.73;;;13.07;;
9294;SDS011;4686;44.496;11.324;2023-08-20T01:55:29;14.80;;;13.13;;
9294;SDS011;4686;44.496;11.324;2023-08-20T01:57:56;13.87;;;12.60;;
9294;SDS011;4686;44.496;11.324;2023-08-20T02:00:23;16.40;;;13.20;;
9294;SDS011;4686;44.496;11.324;2023-08-20T02:02:53;13.97;;;12.67;;
9294;SDS011;4686;44.496;11.324;2023-08-20T02:05:20;17.97;;;14.10;;
9294;SDS011;4686;44.496;11.324;2023-08-20T02:07:47;17.10;;;13.67;;
9294;SDS011;4686;44.496;11.324;2023-08-20T02:10:15;14.20;;;12.90;;
9294;SDS011;4686;44.496;11.324;2023-08-20T02:12:43;14.40;;;12.90;;
9294;SDS011;4686;44.496;11.324;2023-08-20T02:15:10;15.43;;;13.80;;
9294;SDS011;4686;44.496;11.324;2023-08-20T02:17:38;15.07;;;13.73;;
9294;SDS011;4686;44.496;11.324;2023-08-20T02:20:07;14.07;;;12.67;;
9294;SDS011;4686;44.496;11.324;2023-08-20T02:22:35;15.00;;;13.47;;
9294;SDS011;4686;44.496;11.324;2023-08-20T02:25:02;17.07;;;13.43;;
9294;SDS011;4686;44.496;11.324;2023-08-20T02:27:30;21.47;;;13.50;;
9294;SDS011;4686;44.496;11.324;2023-08-20T02:29:57;14.70;;;13.23;;
9294;SDS011;4686;44.496;11.324;2023-08-20T02:32:25;15.53;;;13.53;;
9294;SDS011;4686;44.496;11.324;2023-08-20T02:34:52;15.10;;;13.50;;
9294;SDS011;4686;44.496;11.324;2023-08-20T02:37:21;14.37;;;12.97;;
9294;SDS011;4686;44.496;11.324;2023-08-20T02:39:48;14.90;;;13.50;;
9294;SDS011;4686;44.496;11.324;2023-08-20T02:42:16;14.47;;;12.97;;
9294;SDS011;4686;44.496;11.324;2023-08-20T02:44:43;13.97;;;12.60;;
9294;SDS011;4686;44.496;11.324;2023-08-20T02:47:10;15.93;;;14.33;;
9294;SDS011;4686;44.496;11.324;2023-08-20T02:49:38;15.63;;;12.93;;
9294;SDS011;4686;44.496;11.324;2023-08-20T02:52:05;13.27;;;12.07;;
9294;SDS011;4686;44.496;11.324;2023-08-20T02:54:34;15.43;;;13.97;;
9294;SDS011;4686;44.496;11.324;2023-08-20T02:57:01;16.10;;;13.30;;
9294;SDS011;4686;44.496;11.324;2023-08-20T02:59:28;18.33;;;14.50;;
9294;SDS011;4686;44.496;11.324;2023-08-20T03:01:57;16.73;;;13.43;;
9294;SDS011;4686;44.496;11.324;2023-08-20T03:04:24;14.63;;;13.10;;
9294;SDS011;4686;44.496;11.324;2023-08-20T03:06:52;15.13;;;13.73;;
9294;SDS011;4686;44.496;11.324;2023-08-20T03:09:19;15.87;;;12.83;;
9294;SDS011;4686;44.496;11.324;2023-08-20T03:11:48;14.47;;;13.07;;
9294;SDS011;4686;44.496;11.324;2023-08-20T03:14:15;13.77;;;12.47;;
9294;SDS011;4686;44.496;11.324;2023-08-20T03:16:42;16.13;;;13.80;;
9294;SDS011;4686;44.496;11.324;2023-08-20T03:19:10;14.60;;;13.30;;
9294;SDS011;4686;44.496;11.324;2023-08-20T03:21:37;19.70;;;13.70;;
9294;SDS011;4686;44.496;11.324;2023-08-20T03:24:05;14.20;;;13.00;;
9294;SDS011;4686;44.496;11.324;2023-08-20T03:26:33;18.00;;;13.77;;
9294;SDS011;4686;44.496;11.324;2023-08-20T03:29:01;14.00;;;12.70;;
9294;SDS011;4686;44.496;11.324;2023-08-20T03:31:29;15.37;;;13.40;;
9294;SDS011;4686;44.496;11.324;2023-08-20T03:33:56;16.43;;;13.90;;
9294;SDS011;4686;44.496;11.324;2023-08-20T03:36:23;15.23;;;13.73;;
9294;SDS011;4686;44.496;11.324;2023-08-20T03:38:51;16.73;;;14.00;;
9294;SDS011;4686;44.496;11.324;2023-08-20T03:41:18;13.73;;;12.33;;
9294;SDS011;4686;44.496;11.324;2023-08-20T03:43:45;19.17;;;13.53;;
9294;SDS011;4686;44.496;11.324;2023-08-20T03:46:17;14.60;;;13.20;;
9294;SDS011;4686;44.496;11.324;2023-08-20T03:48:44;15.17;;;13.57;;
9294;SDS011;4686;44.496;11.324;2023-08-20T03:51:11;15.90;;;14.13;;
9294;SDS011;4686;44.496;11.324;2023-08-20T03:53:39;15.83;;;14.33;;
9294;SDS011;4686;44.496;11.324;2023-08-20T03:56:06;15.17;;;13.77;;
9294;SDS011;4686;44.496;11.324;2023-08-20T03:58:33;15.20;;;13.57;;
9294;SDS011;4686;44.496;11.324;2023-08-20T04:01:00;15.70;;;14.00;;
9294;SDS011;4686;44.496;11.324;2023-08-20T04:03:30;16.70;;;15.00;;
9294;SDS011;4686;44.496;11.324;2023-08-20T04:05:57;14.13;;;12.70;;
9294;SDS011;4686;44.496;11.324;2023-08-20T04:08:24;19.00;;;14.30;;
9294;SDS011;4686;44.496;11.324;2023-08-20T04:10:51;14.07;;;12.80;;
9294;SDS011;4686;44.496;11.324;2023-08-20T04:13:19;19.40;;;14.17;;
9294;SDS011;4686;44.496;11.324;2023-08-20T04:15:46;15.47;;;13.67;;
9294;SDS011;4686;44.496;11.324;2023-08-20T04:18:13;15.83;;;14.00;;
9294;SDS011;4686;44.496;11.324;2023-08-20T04:20:42;16.00;;;13.60;;
9294;SDS011;4686;44.496;11.324;2023-08-20T04:23:09;16.60;;;13.60;;
9294;SDS011;4686;44.496;11.324;2023-08-20T04:25:36;14.90;;;13.10;;
9294;SDS011;4686;44.496;11.324;2023-08-20T04:28:04;15.07;;;13.70;;
9294;SDS011;4686;44.496;11.324;2023-08-20T04:30:31;21.23;;;13.60;;
9294;SDS011;4686;44.496;11.324;2023-08-20T04:32:58;15.13;;;13.53;;
9294;SDS011;4686;44.496;11.324;2023-08-20T04:35:26;17.30;;;12.87;;
9294;SDS011;4686;44.496;11.324;2023-08-20T04:37:54;13.70;;;12.23;;
9294;SDS011;4686;44.496;11.324;2023-08-20T04:40:22;14.00;;;12.83;;
9294;SDS011;4686;44.496;11.324;2023-08-20T04:42:49;15.53;;;13.07;;
9294;SDS011;4686;44.496;11.324;2023-08-20T04:45:16;14.77;;;13.30;;
9294;SDS011;4686;44.496;11.324;2023-08-20T04:47:44;17.53;;;13.23;;
9294;SDS011;4686;44.496;11.324;2023-08-20T04:50:12;17.73;;;13.93;;
9294;SDS011;4686;44.496;11.324;2023-08-20T04:52:39;14.90;;;13.40;;
9294;SDS011;4686;44.496;11.324;2023-08-20T04:55:08;15.00;;;13.60;;
9294;SDS011;4686;44.496;11.324;2023-08-20T04:57:35;14.43;;;12.93;;
9294;SDS011;4686;44.496;11.324;2023-08-20T05:00:03;15.13;;;13.63;;
9294;SDS011;4686;44.496;11.324;2023-08-20T05:02:32;14.60;;;13.10;;
9294;SDS011;4686;44.496;11.324;2023-08-20T05:04:59;16.47;;;12.70;;
9294;SDS011;4686;44.496;11.324;2023-08-20T05:07:26;13.73;;;12.47;;
9294;SDS011;4686;44.496;11.324;2023-08-20T05:09:53;15.00;;;13.60;;
9294;SDS011;4686;44.496;11.324;2023-08-20T05:12:22;13.50;;;12.40;;
9294;SDS011;4686;44.496;11.324;2023-08-20T05:14:49;15.77;;;13.57;;
9294;SDS011;4686;44.496;11.324;2023-08-20T05:17:16;14.50;;;13.20;;
9294;SDS011;4686;44.496;11.324;2023-08-20T05:19:44;14.50;;;13.20;;
9294;SDS011;4686;44.496;11.324;2023-08-20T05:22:11;17.37;;;13.30;;
9294;SDS011;4686;44.496;11.324;2023-08-20T05:24:38;14.40;;;12.90;;
9294;SDS011;4686;44.496;11.324;2023-08-20T05:27:06;15.67;;;13.97;;
9294;SDS011;4686;44.496;11.324;2023-08-20T05:29:36;14.27;;;12.87;;
9294;SDS011;4686;44.496;11.324;2023-08-20T05:32:04;12.90;;;11.60;;
9294;SDS011;4686;44.496;11.324;2023-08-20T05:34:31;15.87;;;13.40;;
9294;SDS011;4686;44.496;11.324;2023-08-20T05:36:59;15.17;;;12.13;;
9294;SDS011;4686;44.496;11.324;2023-08-20T05:39:26;13.70;;;12.50;;
9294;SDS011;4686;44.496;11.324;2023-08-20T05:41:53;17.07;;;13.13;;
9294;SDS011;4686;44.496;11.324;2023-08-20T05:44:20;14.00;;;12.70;;
9294;SDS011;4686;44.496;11.324;2023-08-20T05:46:49;14.40;;;12.83;;
9294;SDS011;4686;44.496;11.324;2023-08-20T05:49:16;16.77;;;12.03;;
9294;SDS011;4686;44.496;11.324;2023-08-20T05:51:43;16.50;;;12.87;;
9294;SDS011;4686;44.496;11.324;2023-08-20T05:54:11;14.10;;;12.73;;
9294;SDS011;4686;44.496;11.324;2023-08-20T05:56:38;13.73;;;12.33;;
9294;SDS011;4686;44.496;11.324;2023-08-20T05:59:05;18.57;;;12.77;;
9294;SDS011;4686;44.496;11.324;2023-08-20T06:01:33;13.73;;;12.33;;
9294;SDS011;4686;44.496;11.324;2023-08-20T06:04:02;13.03;;;11.83;;
9294;SDS011;4686;44.496;11.324;2023-08-20T06:06:29;13.23;;;11.90;;
9294;SDS011;4686;44.496;11.324;2023-08-20T06:08:57;12.67;;;11.67;;
9294;SDS011;4686;44.496;11.324;2023-08-20T06:11:24;13.83;;;12.43;;
9294;SDS011;4686;44.496;11.324;2023-08-20T06:13:51;12.77;;;11.57;;
9294;SDS011;4686;44.496;11.324;2023-08-20T06:16:18;13.27;;;11.97;;
9294;SDS011;4686;44.496;11.324;2023-08-20T06:18:46;13.53;;;12.23;;
9294;SDS011;4686;44.496;11.324;2023-08-20T06:21:15;14.60;;;13.07;;
9294;SDS011;4686;44.496;11.324;2023-08-20T06:23:42;13.67;;;12.40;;
9294;SDS011;4686;44.496;11.324;2023-08-20T06:26:09;13.93;;;12.53;;
9294;SDS011;4686;44.496;11.324;2023-08-20T06:28:36;13.30;;;11.97;;
9294;SDS011;4686;44.496;11.324;2023-08-20T06:31:04;13.47;;;12.27;;
9294;SDS011;4686;44.496;11.324;2023-08-20T06:33:31;14.17;;;12.10;;
9294;SDS011;4686;44.496;11.324;2023-08-20T06:35:58;13.07;;;11.77;;
9294;SDS011;4686;44.496;11.324;2023-08-20T06:38:27;13.57;;;12.47;;
9294;SDS011;4686;44.496;11.324;2023-08-20T06:40:55;12.73;;;11.50;;
9294;SDS011;4686;44.496;11.324;2023-08-20T06:43:22;13.07;;;11.87;;
9294;SDS011;4686;44.496;11.324;2023-08-20T06:45:50;12.70;;;11.60;;
9294;SDS011;4686;44.496;11.324;2023-08-20T06:48:17;12.77;;;11.47;;
9294;SDS011;4686;44.496;11.324;2023-08-20T06:50:45;12.47;;;11.37;;
9294;SDS011;4686;44.496;11.324;2023-08-20T06:53:12;12.67;;;11.27;;
9294;SDS011;4686;44.496;11.324;2023-08-20T06:55:41;13.10;;;11.80;;
9294;SDS011;4686;44.496;11.324;2023-08-20T06:58:09;19.63;;;11.43;;
9294;SDS011;4686;44.496;11.324;2023-08-20T07:00:36;11.57;;;10.33;;
9294;SDS011;4686;44.496;11.324;2023-08-20T07:03:03;12.47;;;11.13;;
9294;SDS011;4686;44.496;11.324;2023-08-20T07:05:30;12.30;;;11.20;;
9294;SDS011;4686;44.496;11.324;2023-08-20T07:07:58;11.90;;;10.80;;
9294;SDS011;4686;44.496;11.324;2023-08-20T07:10:25;11.13;;;10.13;;
9294;SDS011;4686;44.496;11.324;2023-08-20T07:12:54;12.37;;;11.10;;
9294;SDS011;4686;44.496;11.324;2023-08-20T07:15:21;11.20;;;10.20;;
9294;SDS011;4686;44.496;11.324;2023-08-20T07:17:49;15.30;;;10.60;;
9294;SDS011;4686;44.496;11.324;2023-08-20T07:20:16;13.40;;;10.80;;
9294;SDS011;4686;44.496;11.324;2023-08-20T07:22:43;12.20;;;11.00;;
9294;SDS011;4686;44.496;11.324;2023-08-20T07:25:11;11.27;;;10.10;;
9294;SDS011;4686;44.496;11.324;2023-08-20T07:27:38;10.80;;;9.80;;
9294;SDS011;4686;44.496;11.324;2023-08-20T07:30:10;17.60;;;11.17;;
9294;SDS011;4686;44.496;11.324;2023-08-20T07:32:37;11.73;;;10.53;;
9294;SDS011;4686;44.496;11.324;2023-08-20T07:35:05;13.07;;;10.10;;
9294;SDS011;4686;44.496;11.324;2023-08-20T07:37:32;12.17;;;10.77;;
9294;SDS011;4686;44.496;11.324;2023-08-20T07:39:59;11.80;;;10.70;;
9294;SDS011;4686;44.496;11.324;2023-08-20T07:42:27;13.70;;;10.80;;
9294;SDS011;4686;44.496;11.324;2023-08-20T07:44:54;12.77;;;10.63;;
9294;SDS011;4686;44.496;11.324;2023-08-20T07:47:23;12.47;;;11.27;;
9294;SDS011;4686;44.496;11.324;2023-08-20T07:49:50;11.67;;;10.57;;
9294;SDS011;4686;44.496;11.324;2023-08-20T07:52:18;12.43;;;11.23;;
9294;SDS011;4686;44.496;11.324;2023-08-20T07:54:45;12.10;;;10.90;;
9294;SDS011;4686;44.496;11.324;2023-08-20T07:57:12;11.90;;;10.87;;
9294;SDS011;4686;44.496;11.324;2023-08-20T07:59:39;12.20;;;11.00;;
9294;SDS011;4686;44.496;11.324;2023-08-20T08:02:06;13.23;;;12.00;;
9294;SDS011;4686;44.496;11.324;2023-08-20T08:04:35;12.57;;;11.27;;
9294;SDS011;4686;44.496;11.324;2023-08-20T08:07:03;12.30;;;10.83;;
9294;SDS011;4686;44.496;11.324;2023-08-20T08:09:30;16.40;;;11.87;;
9294;SDS011;4686;44.496;11.324;2023-08-20T08:11:58;12.17;;;10.57;;
9294;SDS011;4686;44.496;11.324;2023-08-20T08:14:25;12.47;;;11.37;;
9294;SDS011;4686;44.496;11.324;2023-08-20T08:16:53;12.47;;;11.20;;
9294;SDS011;4686;44.496;11.324;2023-08-20T08:19:20;11.93;;;10.93;;
9294;SDS011;4686;44.496;11.324;2023-08-20T08:21:49;20.03;;;11.57;;
9294;SDS011;4686;44.496;11.324;2023-08-20T08:24:16;11.73;;;10.63;;
9294;SDS011;4686;44.496;11.324;2023-08-20T08:26:43;13.57;;;11.00;;
9294;SDS011;4686;44.496;11.324;2023-08-20T08:29:10;12.83;;;11.23;;
9294;SDS011;4686;44.496;11.324;2023-08-20T08:31:37;12.53;;;11.33;;
9294;SDS011;4686;44.496;11.324;2023-08-20T08:34:05;11.60;;;10.60;;
9294;SDS011;4686;44.496;11.324;2023-08-20T08:36:32;12.87;;;10.67;;
9294;SDS011;4686;44.496;11.324;2023-08-20T08:39:00;17.60;;;12.30;;
9294;SDS011;4686;44.496;11.324;2023-08-20T08:41:27;11.43;;;10.47;;
9294;SDS011;4686;44.496;11.324;2023-08-20T08:43:55;12.50;;;11.17;;
9294;SDS011;4686;44.496;11.324;2023-08-20T08:46:23;12.67;;;11.43;;
9294;SDS011;4686;44.496;11.324;2023-08-20T08:48:51;12.13;;;11.03;;
9294;SDS011;4686;44.496;11.324;2023-08-20T08:51:18;12.97;;;11.70;;
9294;SDS011;4686;44.496;11.324;2023-08-20T08:53:46;12.93;;;11.50;;
9294;SDS011;4686;44.496;11.324;2023-08-20T08:56:14;12.87;;;11.53;;
9294;SDS011;4686;44.496;11.324;2023-08-20T08:58:41;14.03;;;12.70;;
9294;SDS011;4686;44.496;11.324;2023-08-20T09:01:09;16.70;;;12.30;;
9294;SDS011;4686;44.496;11.324;2023-08-20T09:03:36;12.93;;;11.77;;
9294;SDS011;4686;44.496;11.324;2023-08-20T09:06:07;12.73;;;11.50;;
9294;SDS011;4686;44.496;11.324;2023-08-20T09:08:35;12.63;;;11.33;;
9294;SDS011;4686;44.496;11.324;2023-08-20T09:11:02;19.83;;;12.50;;
9294;SDS011;4686;44.496;11.324;2023-08-20T09:13:34;16.23;;;12.33;;
9294;SDS011;4686;44.496;11.324;2023-08-20T09:16:03;13.30;;;12.10;;
9294;SDS011;4686;44.496;11.324;2023-08-20T09:18:30;13.57;;;12.47;;
9294;SDS011;4686;44.496;11.324;2023-08-20T09:20:57;17.50;;;12.20;;
9294;SDS011;4686;44.496;11.324;2023-08-20T09:23:28;13.47;;;12.23;;
9294;SDS011;4686;44.496;11.324;2023-08-20T09:25:56;13.57;;;12.27;;
9294;SDS011;4686;44.496;11.324;2023-08-20T09:28:24;13.53;;;12.23;;
9294;SDS011;4686;44.496;11.324;2023-08-20T09:30:57;13.27;;;12.13;;
9294;SDS011;4686;44.496;11.324;2023-08-20T09:33:26;14.47;;;13.07;;
9294;SDS011;4686;44.496;11.324;2023-08-20T09:35:54;14.40;;;12.83;;
9294;SDS011;4686;44.496;11.324;2023-08-20T09:38:22;17.03;;;13.23;;
9294;SDS011;4686;44.496;11.324;2023-08-20T09:40:50;14.43;;;13.03;;
9294;SDS011;4686;44.496;11.324;2023-08-20T09:43:35;14.67;;;13.17;;
9294;SDS011;4686;44.496;11.324;2023-08-20T09:46:05;13.67;;;12.37;;
9294;SDS011;4686;44.496;11.324;2023-08-20T09:48:33;14.20;;;12.70;;
9294;SDS011;4686;44.496;11.324;2023-08-20T09:51:02;15.43;;;12.10;;
9294;SDS011;4686;44.496;11.324;2023-08-20T09:53:31;13.33;;;12.13;;
9294;SDS011;4686;44.496;11.324;2023-08-20T09:56:01;13.67;;;12.47;;
9294;SDS011;4686;44.496;11.324;2023-08-20T09:58:30;14.70;;;13.30;;
9294;SDS011;4686;44.496;11.324;2023-08-20T10:00:58;21.93;;;12.57;;
9294;SDS011;4686;44.496;11.324;2023-08-20T10:03:27;13.40;;;12.10;;
9294;SDS011;4686;44.496;11.324;2023-08-20T10:05:54;14.63;;;13.13;;
9294;SDS011;4686;44.496;11.324;2023-08-20T10:08:23;13.80;;;12.60;;
9294;SDS011;4686;44.496;11.324;2023-08-20T10:10:50;16.53;;;12.07;;
9294;SDS011;4686;44.496;11.324;2023-08-20T10:13:17;13.70;;;12.23;;
9294;SDS011;4686;44.496;11.324;2023-08-20T10:15:45;14.70;;;13.30;;
9294;SDS011;4686;44.496;11.324;2023-08-20T10:18:12;16.10;;;12.53;;
9294;SDS011;4686;44.496;11.324;2023-08-20T10:20:41;13.50;;;12.30;;
9294;SDS011;4686;44.496;11.324;2023-08-20T10:23:08;13.90;;;12.43;;
9294;SDS011;4686;44.496;11.324;2023-08-20T10:25:42;15.00;;;13.40;;
9294;SDS011;4686;44.496;11.324;2023-08-20T10:28:12;17.73;;;15.83;;
9294;SDS011;4686;44.496;11.324;2023-08-20T10:33:22;16.53;;;12.37;;
9294;SDS011;4686;44.496;11.324;2023-08-20T10:35:51;17.47;;;12.80;;
9294;SDS011;4686;44.496;11.324;2023-08-20T10:38:20;13.33;;;11.90;;
9294;SDS011;4686;44.496;11.324;2023-08-20T10:40:47;13.33;;;12.23;;
9294;SDS011;4686;44.496;11.324;2023-08-20T10:43:26;17.20;;;14.33;;
9294;SDS011;4686;44.496;11.324;2023-08-20T10:46:02;13.67;;;12.10;;
9294;SDS011;4686;44.496;11.324;2023-08-20T10:48:29;12.50;;;11.20;;
9294;SDS011;4686;44.496;11.324;2023-08-20T10:50:58;13.17;;;11.87;;
9294;SDS011;4686;44.496;11.324;2023-08-20T10:53:25;12.77;;;11.60;;
9294;SDS011;4686;44.496;11.324;2023-08-20T10:55:53;12.50;;;11.50;;
9294;SDS011;4686;44.496;11.324;2023-08-20T10:58:23;13.10;;;11.73;;
9294;SDS011;4686;44.496;11.324;2023-08-20T11:03:32;13.57;;;12.17;;
9294;SDS011;4686;44.496;11.324;2023-08-20T11:06:01;13.03;;;11.93;;
9294;SDS011;4686;44.496;11.324;2023-08-20T11:08:30;13.30;;;12.00;;
9294;SDS011;4686;44.496;11.324;2023-08-20T11:10:57;12.77;;;11.20;;
9294;SDS011;4686;44.496;11.324;2023-08-20T11:13:25;13.23;;;12.03;;
9294;SDS011;4686;44.496;11.324;2023-08-20T11:15:52;12.60;;;11.37;;
9294;SDS011;4686;44.496;11.324;2023-08-20T11:18:19;12.30;;;11.13;;
9294;SDS011;4686;44.496;11.324;2023-08-20T11:20:47;12.43;;;11.27;;
9294;SDS011;4686;44.496;11.324;2023-08-20T11:23:16;13.77;;;11.70;;
9294;SDS011;4686;44.496;11.324;2023-08-20T11:25:43;13.00;;;11.20;;
9294;SDS011;4686;44.496;11.324;2023-08-20T11:28:10;11.63;;;10.60;;
9294;SDS011;4686;44.496;11.324;2023-08-20T11:30:37;12.87;;;11.80;;
9294;SDS011;4686;44.496;11.324;2023-08-20T11:33:11;12.80;;;11.60;;
9294;SDS011;4686;44.496;11.324;2023-08-20T11:35:40;14.97;;;12.40;;
9294;SDS011;4686;44.496;11.324;2023-08-20T11:38:09;13.47;;;12.27;;
9294;SDS011;4686;44.496;11.324;2023-08-20T11:40:38;12.93;;;11.63;;
9294;SDS011;4686;44.496;11.324;2023-08-20T11:43:05;12.90;;;11.90;;
9294;SDS011;4686;44.496;11.324;2023-08-20T11:45:33;12.03;;;10.83;;
9294;SDS011;4686;44.496;11.324;2023-08-20T11:48:00;12.70;;;11.57;;
9294;SDS011;4686;44.496;11.324;2023-08-20T11:50:28;11.60;;;10.70;;
9294;SDS011;4686;44.496;11.324;2023-08-20T11:52:56;13.40;;;11.50;;
9294;SDS011;4686;44.496;11.324;2023-08-20T11:55:26;13.50;;;12.40;;
9294;SDS011;4686;44.496;11.324;2023-08-20T11:57:57;15.40;;;11.50;;
9294;SDS011;4686;44.496;11.324;2023-08-20T12:00:25;16.53;;;11.40;;
9294;SDS011;4686;44.496;11.324;2023-08-20T12:02:52;13.13;;;11.90;;
9294;SDS011;4686;44.496;11.324;2023-08-20T12:05:26;13.67;;;12.07;;
9294;SDS011;4686;44.496;11.324;2023-08-20T12:07:56;16.53;;;12.10;;
9294;SDS011;4686;44.496;11.324;2023-08-20T12:10:24;12.83;;;11.63;;
9294;SDS011;4686;44.496;11.324;2023-08-20T12:12:51;14.50;;;11.73;;
9294;SDS011;4686;44.496;11.324;2023-08-20T12:15:20;12.33;;;11.33;;
9294;SDS011;4686;44.496;11.324;2023-08-20T12:18:00;12.60;;;11.33;;
9294;SDS011;4686;44.496;11.324;2023-08-20T12:20:29;12.70;;;11.60;;
9294;SDS011;4686;44.496;11.324;2023-08-20T12:23:01;12.80;;;11.20;;
9294;SDS011;4686;44.496;11.324;2023-08-20T12:25:29;12.47;;;11.37;;
9294;SDS011;4686;44.496;11.324;2023-08-20T12:27:58;13.33;;;11.93;;
9294;SDS011;4686;44.496;11.324;2023-08-20T12:30:27;13.07;;;11.67;;
9294;SDS011;4686;44.496;11.324;2023-08-20T12:32:54;14.67;;;12.23;;
9294;SDS011;4686;44.496;11.324;2023-08-20T12:35:22;13.17;;;11.93;;
9294;SDS011;4686;44.496;11.324;2023-08-20T12:37:49;12.90;;;11.00;;
9294;SDS011;4686;44.496;11.324;2023-08-20T12:40:17;13.50;;;11.80;;
9294;SDS011;4686;44.496;11.324;2023-08-20T12:42:44;13.40;;;12.10;;
9294;SDS011;4686;44.496;11.324;2023-08-20T12:45:11;11.83;;;10.83;;
9294;SDS011;4686;44.496;11.324;2023-08-20T12:47:40;11.50;;;10.50;;
9294;SDS011;4686;44.496;11.324;2023-08-20T12:50:07;11.90;;;10.80;;
9294;SDS011;4686;44.496;11.324;2023-08-20T12:52:36;12.73;;;10.97;;
9294;SDS011;4686;44.496;11.324;2023-08-20T12:55:03;12.17;;;11.13;;
9294;SDS011;4686;44.496;11.324;2023-08-20T12:57:33;11.77;;;10.60;;
9294;SDS011;4686;44.496;11.324;2023-08-20T13:00:01;11.30;;;10.27;;
9294;SDS011;4686;44.496;11.324;2023-08-20T13:02:32;10.80;;;9.80;;
9294;SDS011;4686;44.496;11.324;2023-08-20T13:05:01;11.83;;;10.63;;
9294;SDS011;4686;44.496;11.324;2023-08-20T13:07:30;10.97;;;10.00;;
9294;SDS011;4686;44.496;11.324;2023-08-20T13:09:57;14.47;;;10.83;;
9294;SDS011;4686;44.496;11.324;2023-08-20T13:12:25;15.37;;;10.43;;
9294;SDS011;4686;44.496;11.324;2023-08-20T13:14:54;20.80;;;12.97;;
9294;SDS011;4686;44.496;11.324;2023-08-20T13:17:22;10.70;;;9.63;;
9294;SDS011;4686;44.496;11.324;2023-08-20T13:19:49;14.20;;;10.30;;
9294;SDS011;4686;44.496;11.324;2023-08-20T13:22:18;14.20;;;12.80;;
9294;SDS011;4686;44.496;11.324;2023-08-20T13:24:45;9.80;;;9.00;;
9294;SDS011;4686;44.496;11.324;2023-08-20T13:27:12;11.77;;;9.50;;
9294;SDS011;4686;44.496;11.324;2023-08-20T13:29:40;10.40;;;9.40;;
9294;SDS011;4686;44.496;11.324;2023-08-20T13:32:07;11.37;;;10.33;;
9294;SDS011;4686;44.496;11.324;2023-08-20T13:34:34;11.37;;;9.47;;
9294;SDS011;4686;44.496;11.324;2023-08-20T13:37:02;14.70;;;9.57;;
9294;SDS011;4686;44.496;11.324;2023-08-20T13:39:30;10.10;;;9.13;;
9294;SDS011;4686;44.496;11.324;2023-08-20T13:41:57;11.07;;;10.07;;
9294;SDS011;4686;44.496;11.324;2023-08-20T13:44:25;10.17;;;9.37;;
9294;SDS011;4686;44.496;11.324;2023-08-20T13:46:52;12.60;;;11.23;;
9294;SDS011;4686;44.496;11.324;2023-08-20T13:49:20;12.77;;;9.17;;
9294;SDS011;4686;44.496;11.324;2023-08-20T13:51:47;10.33;;;9.43;;
9294;SDS011;4686;44.496;11.324;2023-08-20T13:54:15;11.13;;;8.73;;
9294;SDS011;4686;44.496;11.324;2023-08-20T13:56:43;14.90;;;9.50;;
9294;SDS011;4686;44.496;11.324;2023-08-20T13:59:10;10.60;;;9.60;;
9294;SDS011;4686;44.496;11.324;2023-08-20T14:01:37;11.97;;;8.47;;
9294;SDS011;4686;44.496;11.324;2023-08-20T14:04:05;9.90;;;9.10;;
9294;SDS011;4686;44.496;11.324;2023-08-20T14:06:32;9.53;;;8.57;;
9294;SDS011;4686;44.496;11.324;2023-08-20T14:08:59;10.17;;;9.17;;
9294;SDS011;4686;44.496;11.324;2023-08-20T14:11:29;12.17;;;11.00;;
9294;SDS011;4686;44.496;11.324;2023-08-20T14:13:58;9.60;;;8.80;;
9294;SDS011;4686;44.496;11.324;2023-08-20T14:16:25;9.00;;;8.20;;
9294;SDS011;4686;44.496;11.324;2023-08-20T14:18:53;15.20;;;12.10;;
9294;SDS011;4686;44.496;11.324;2023-08-20T14:21:20;9.13;;;8.33;;
9294;SDS011;4686;44.496;11.324;2023-08-20T14:23:47;11.47;;;10.30;;
9294;SDS011;4686;44.496;11.324;2023-08-20T14:26:15;10.03;;;9.03;;
9294;SDS011;4686;44.496;11.324;2023-08-20T14:28:42;9.30;;;8.50;;
9294;SDS011;4686;44.496;11.324;2023-08-20T14:31:11;10.63;;;8.30;;
9294;SDS011;4686;44.496;11.324;2023-08-20T14:33:38;9.10;;;8.03;;
9294;SDS011;4686;44.496;11.324;2023-08-20T14:36:05;9.73;;;8.83;;
9294;SDS011;4686;44.496;11.324;2023-08-20T14:38:33;17.73;;;8.83;;
9294;SDS011;4686;44.496;11.324;2023-08-20T14:41:00;9.20;;;7.80;;
9294;SDS011;4686;44.496;11.324;2023-08-20T14:43:27;8.00;;;7.40;;
9294;SDS011;4686;44.496;11.324;2023-08-20T14:45:55;8.70;;;7.90;;
9294;SDS011;4686;44.496;11.324;2023-08-20T14:48:24;9.17;;;8.23;;